Explora — IXWQ — position and weather

sailwx.info

Track history (hours):
 
Tides and Currents Weather Stations Pressure Air Temp Water Temp Dewpoint Dewpoint Depression Visibility Wind Speed Wind Dir Waves Ship Positions

Oceanographic research ship Explora (Italy)

Detailed information on ship capabilities available from University of Delaware's Ocean Information Center.

Last reported at 2015-Jul-29 08:30 UTC. Time now 2015-Jul-30 06:05 UTC.
Position N 39°40' W 009°51'.

Length 73 m; draft 5.5 m.

Type: Dredging. MMSI: 247028700.

Date/timePositionNaut miles runAvg speedWind from/ knotsBaromVisibWave heightAir tempDewpointWater temp
2015-Jul-29 08:30N 39°40' W 009°51'9 9.7
2015-Jul-29 07:31N 39°31' W 009°51'9 9.3
2015-Jul-29 06:32N 39°22' W 009°51'9 9.2
2015-Jul-29 05:33N 39°13' W 009°51'9 9.4
2015-Jul-29 04:33N 39°03' W 009°51'10 9.6
2015-Jul-29 03:34N 38°54' W 009°51'9 9.4
2015-Jul-29 02:33N 38°44' W 009°51'9 9.4
2015-Jul-29 01:33N 38°35' W 009°49'9 9.4
2015-Jul-29 00:33N 38°26' W 009°46'9 8.9
2015-Jul-28 23:33N 38°17' W 009°45'9 8.8
2015-Jul-28 22:32N 38°08' W 009°43'8 8.6
2015-Jul-28 21:33N 38°00' W 009°41'9 8.7
2015-Jul-28 20:33N 37°52' W 009°38'8 8.4
2015-Jul-28 19:33N 37°43' W 009°36'8 8.2
2015-Jul-28 18:33N 37°36' W 009°33'8 7.6
2015-Jul-28 17:33N 37°28' W 009°31'29 6.9
2015-Jul-28 13:25N 37°01' W 009°21'7 8.0
2015-Jul-28 12:34N 36°54' W 009°19'23 7.4
2015-Jul-28 09:32N 36°41' W 008°56'11 8.2
2015-Jul-28 08:14N 36°38' W 008°44'35 9.4
2015-Jul-28 04:34N 36°26' W 008°03'10 9.7
2015-Jul-28 03:33N 36°23' W 007°52'3210.1
2015-Jul-28 00:24N 36°13' W 007°14'1210.3
2015-Jul-27 23:17N 36°09' W 007°01'910.7
2015-Jul-27 22:27N 36°06' W 006°50'1110.3
2015-Jul-27 21:23N 36°02' W 006°38'910.3
2015-Jul-27 20:31N 35°60' W 006°27'208 9.3
2015-Jul-26 22:07N 36°27' W 002°11'710.4
2015-Jul-26 21:29N 36°30' W 002°04'2010.6
2015-Jul-26 19:33N 36°42' W 001°43'1110.6
2015-Jul-26 18:33N 36°48' W 001°32'2210.8
2015-Jul-26 16:31N 37°01' W 001°10'1010.5
2015-Jul-26 15:33N 37°07' W 001°00'1110.7
2015-Jul-26 14:33N 37°13' W 000°49'1111.1
2015-Jul-26 13:31N 37°20' W 000°37'1010.8
2015-Jul-26 12:33N 37°25' W 000°26'1110.9
2015-Jul-26 11:33N 37°31' W 000°15'11810.7
2015-Jul-26 00:30N 38°42' E 001°45'9 9.6
2015-Jul-25 23:33N 38°49' E 001°53'10 9.7
2015-Jul-25 22:33N 38°56' E 002°01'10 9.9
2015-Jul-25 21:31N 39°04' E 002°09'1010.0
2015-Jul-25 20:33N 39°12' E 002°17'1010.1
2015-Jul-25 19:33N 39°19' E 002°26'1010.4
2015-Jul-25 18:33N 39°27' E 002°35'6 6.5
2015-Jul-25 17:34N 39°33' E 002°38'0 0.0
2015-Jul-25 15:05N 39°33' E 002°38'0 0.0
2015-Jul-25 14:29N 39°33' E 002°38'0 0.0
2015-Jul-25 13:32N 39°33' E 002°38'0 0.0
2015-Jul-25 12:32N 39°33' E 002°38'0 0.0
2015-Jul-25 10:17N 39°33' E 002°38'0 0.0
2015-Jul-25 09:23N 39°33' E 002°38'0 0.0
2015-Jul-25 08:32N 39°33' E 002°38'0 0.0
2015-Jul-25 07:29N 39°33' E 002°38'0 0.0
2015-Jul-25 06:32N 39°33' E 002°38'0 0.0
2015-Jul-25 05:23N 39°33' E 002°38'0 0.0
2015-Jul-25 04:11N 39°33' E 002°38'0 0.0
2015-Jul-25 03:11N 39°33' E 002°38'0 0.0
2015-Jul-25 02:29N 39°33' E 002°38'0 0.0
2015-Jul-25 01:32N 39°33' E 002°38'0 0.0
2015-Jul-25 00:32N 39°33' E 002°38'0 0.0
2015-Jul-24 23:32N 39°33' E 002°38'0 0.0
2015-Jul-24 22:32N 39°33' E 002°38'0 0.0
2015-Jul-24 21:32N 39°33' E 002°38'0 0.0
2015-Jul-24 20:28N 39°33' E 002°38'0 0.0
2015-Jul-24 19:31N 39°33' E 002°38'0 0.0
2015-Jul-24 18:31N 39°33' E 002°38'0 0.0
2015-Jul-24 17:31N 39°33' E 002°38'0 0.0
2015-Jul-24 16:31N 39°33' E 002°38'0 0.0
2015-Jul-24 15:31N 39°33' E 002°38'0 0.0
2015-Jul-24 14:31N 39°33' E 002°38'0 0.0
2015-Jul-24 13:28N 39°33' E 002°38'0 0.0
2015-Jul-24 12:31N 39°33' E 002°38'0 0.0
2015-Jul-24 11:31N 39°33' E 002°38'0 0.0
2015-Jul-24 10:31N 39°33' E 002°38'0 0.0
2015-Jul-24 09:31N 39°33' E 002°38'0 0.0
2015-Jul-24 08:31N 39°33' E 002°38'0 0.0
2015-Jul-24 07:28N 39°33' E 002°38'0 0.0
2015-Jul-24 06:31N 39°33' E 002°38'0 0.0
2015-Jul-24 05:31N 39°33' E 002°38'0 0.0
2015-Jul-24 04:31N 39°33' E 002°38'0 0.0
2015-Jul-24 03:31N 39°33' E 002°38'0 0.0
2015-Jul-24 02:31N 39°33' E 002°38'0 0.0
2015-Jul-24 01:31N 39°33' E 002°38'0 0.0
2015-Jul-24 00:28N 39°33' E 002°38'0 0.0
2015-Jul-23 23:31N 39°33' E 002°38'0 0.0
2015-Jul-23 22:31N 39°33' E 002°38'0 0.0
2015-Jul-23 21:31N 39°33' E 002°38'0 0.0
2015-Jul-23 20:31N 39°33' E 002°38'0 0.0
2015-Jul-23 19:31N 39°33' E 002°38'0 0.0
2015-Jul-23 18:31N 39°33' E 002°38'0 0.0
2015-Jul-23 17:31N 39°33' E 002°38'0 0.0
2015-Jul-23 16:31N 39°33' E 002°38'0 0.0
2015-Jul-23 15:31N 39°33' E 002°38'0 0.0
2015-Jul-23 14:31N 39°33' E 002°38'0 0.0
2015-Jul-23 13:31N 39°33' E 002°38'0 0.0
2015-Jul-23 12:31N 39°33' E 002°38'0 0.0
2015-Jul-23 11:34N 39°33' E 002°38'0 0.0
2015-Jul-23 10:33N 39°33' E 002°38'0 0.0
2015-Jul-23 09:33N 39°33' E 002°38'0 0.0
2015-Jul-23 08:33N 39°33' E 002°38'0 0.0
2015-Jul-23 07:34N 39°33' E 002°38'3 2.6
2015-Jul-23 06:33N 39°30' E 002°38'1010.1
2015-Jul-23 05:33N 39°20' E 002°36'8 8.1
2015-Jul-23 04:33N 39°13' E 002°32'3 3.0
2015-Jul-23 03:33N 39°10' E 002°33'5 4.9
2015-Jul-23 02:33N 39°12' E 002°27'10 9.6
2015-Jul-23 01:33N 39°12' E 002°14'10 9.5
2015-Jul-23 00:33N 39°12' E 002°02'2 1.7
2015-Jul-22 23:33N 39°11' E 002°04'10 9.9
2015-Jul-22 22:33N 39°11' E 002°16'10 9.8
2015-Jul-22 21:33N 39°11' E 002°29'3 2.7
2015-Jul-22 20:33N 39°09' E 002°32'1010.1
2015-Jul-22 19:33N 39°09' E 002°19'1010.0
2015-Jul-22 18:33N 39°09' E 002°06'4 4.5
2015-Jul-22 17:33N 39°07' E 002°00'10 9.8
2015-Jul-22 16:33N 39°07' E 002°13'10 9.8
2015-Jul-22 15:33N 39°07' E 002°26'6 6.2
2015-Jul-22 14:33N 39°06' E 002°33'10 9.9
2015-Jul-22 13:33N 39°06' E 002°20'10 9.8
2015-Jul-22 12:33N 39°06' E 002°08'8 7.6
2015-Jul-22 11:33N 39°04' E 001°58'1010.0
2015-Jul-22 10:33N 39°04' E 002°11'1010.1
2015-Jul-22 09:33N 39°04' E 002°24'9 9.0
2015-Jul-22 08:33N 39°03' E 002°36'9 9.4
2015-Jul-22 07:33N 39°03' E 002°24'10 9.8
2015-Jul-22 06:33N 39°03' E 002°11'1010.0
2015-Jul-22 05:33N 39°02' E 001°58'7 7.3
2015-Jul-22 04:33N 39°01' E 002°08'1010.0
2015-Jul-22 03:33N 39°01' E 002°20'1010.1
2015-Jul-22 02:33N 39°01' E 002°33'6 6.0
2015-Jul-22 01:33N 38°59' E 002°26'10 9.8
2015-Jul-22 00:33N 38°59' E 002°13'9 8.7
2015-Jul-21 23:33N 38°59' E 002°02'4 3.8
2015-Jul-21 22:33N 38°58' E 002°07'1010.0
2015-Jul-21 21:33N 38°58' E 002°20'1010.3
2015-Jul-21 20:33N 38°58' E 002°33'4 4.5
2015-Jul-21 19:33N 38°56' E 002°27'4 4.4
2015-Jul-21 18:33N 38°56' E 002°22'5 5.0
2015-Jul-21 17:33N 39°00' E 002°18'1010.0
2015-Jul-21 16:33N 39°09' E 002°11'3 2.6
2015-Jul-21 15:33N 39°11' E 002°09'0 0.2
2015-Jul-21 14:33N 39°11' E 002°09'7 6.9
2015-Jul-21 13:33N 39°04' E 002°12'1010.0
2015-Jul-21 12:32N 38°55' E 002°17'0 0.2
2015-Jul-21 11:32N 38°55' E 002°17'6 4.4
2015-Jul-21 10:08N 38°49' E 002°15'2 3.4
2015-Jul-21 09:33N 38°47' E 002°15'0 0.3
2015-Jul-21 08:33N 38°47' E 002°15'1 0.9
2015-Jul-21 07:33N 38°48' E 002°14'0 0.5
2015-Jul-21 06:33N 38°48' E 002°14'3 3.3
2015-Jul-21 05:33N 38°51' E 002°11'6 5.5
2015-Jul-21 04:33N 38°56' E 002°10'1010.1
2015-Jul-21 03:33N 38°56' E 002°23'5 5.5
2015-Jul-21 02:33N 38°55' E 002°16'8 8.1
2015-Jul-21 01:33N 38°53' E 002°06'1010.0
2015-Jul-21 00:33N 38°53' E 002°19'2 2.0
2015-Jul-20 23:33N 38°51' E 002°20'10 9.6
2015-Jul-20 22:33N 38°51' E 002°08'6 5.8
2015-Jul-20 21:33N 38°50' E 002°15'10 9.5
2015-Jul-20 20:33N 38°49' E 002°27'8 8.2
2015-Jul-20 19:33N 38°48' E 002°17'4 4.5
2015-Jul-20 18:33N 38°48' E 002°11'5 4.9
2015-Jul-20 17:30N 38°44' E 002°06'0 0.4
2015-Jul-20 16:32N 38°44' E 002°07'1 0.6
2015-Jul-20 15:32N 38°44' E 002°07'5 4.5
2015-Jul-20 14:29N 38°39' E 002°05'4 4.2
2015-Jul-20 13:33N 38°43' E 002°07'1 1.4
2015-Jul-20 12:33N 38°42' E 002°06'1 1.0
2015-Jul-20 11:33N 38°43' E 002°06'7 6.9
2015-Jul-20 10:32N 38°36' E 002°04'20 8.6
2015-Jul-20 08:12N 38°16' E 001°59'0 0.6
2015-Jul-20 07:26N 38°17' E 001°59'0 0.4
2015-Jul-20 06:33N 38°17' E 001°59'6 2.8
2015-Jul-20 04:28N 38°11' E 001°59'4 4.6
2015-Jul-20 03:33N 38°08' E 001°56'9 4.5
2015-Jul-20 01:33N 38°07' E 001°45'5 4.5
2015-Jul-20 00:33N 38°07' E 001°39'5 4.5
2015-Jul-19 23:32N 38°07' E 001°33'3 3.3
2015-Jul-19 22:33N 38°04' E 001°34'7 6.7
2015-Jul-19 21:29N 38°04' E 001°43'3 2.7
2015-Jul-19 20:23N 38°04' E 001°46'4 4.5
2015-Jul-19 19:32N 38°04' E 001°51'6 4.7
2015-Jul-19 18:11N 38°05' E 001°59'7 9.7
2015-Jul-19 17:27N 38°06' E 001°50'6 6.8
2015-Jul-19 16:32N 38°06' E 001°42'0 0.2
2015-Jul-19 15:33N 38°06' E 001°42'0 0.1
2015-Jul-19 14:33N 38°06' E 001°43'1 0.9
2015-Jul-19 13:33N 38°05' E 001°43'0 0.5
2015-Jul-19 12:34N 38°05' E 001°43'7 6.2
2015-Jul-19 11:30N 38°04' E 001°51'1110.3
2015-Jul-19 10:28N 38°03' E 002°05'8 9.2
2015-Jul-19 09:33N 38°03' E 002°15'  
Track history (hours):
 
Tides and Currents Weather Stations Pressure Air Temp Water Temp Dewpoint Dewpoint Depression Visibility Wind Speed Wind Dir Waves Ship Positions

Oceanographic research ship Explora (Italy)

Detailed information on ship capabilities available from University of Delaware's Ocean Information Center.

Last reported at 2015-Jul-29 08:30 UTC. Time now 2015-Jul-30 06:05 UTC.
Position N 39°40' W 009°51'.

Length 73 m; draft 5.5 m.

Type: Dredging. MMSI: 247028700.

Date/timePositionNaut miles runAvg speedWind from/ knotsBaromVisibWave heightAir tempDewpointWater temp
2015-Jul-29 08:30N 39°40' W 009°51'9 9.7
2015-Jul-29 07:31N 39°31' W 009°51'9 9.3
2015-Jul-29 06:32N 39°22' W 009°51'9 9.2
2015-Jul-29 05:33N 39°13' W 009°51'9 9.4
2015-Jul-29 04:33N 39°03' W 009°51'10 9.6
2015-Jul-29 03:34N 38°54' W 009°51'9 9.4
2015-Jul-29 02:33N 38°44' W 009°51'9 9.4
2015-Jul-29 01:33N 38°35' W 009°49'9 9.4
2015-Jul-29 00:33N 38°26' W 009°46'9 8.9
2015-Jul-28 23:33N 38°17' W 009°45'9 8.8
2015-Jul-28 22:32N 38°08' W 009°43'8 8.6
2015-Jul-28 21:33N 38°00' W 009°41'9 8.7
2015-Jul-28 20:33N 37°52' W 009°38'8 8.4
2015-Jul-28 19:33N 37°43' W 009°36'8 8.2
2015-Jul-28 18:33N 37°36' W 009°33'8 7.6
2015-Jul-28 17:33N 37°28' W 009°31'29 6.9
2015-Jul-28 13:25N 37°01' W 009°21'7 8.0
2015-Jul-28 12:34N 36°54' W 009°19'23 7.4
2015-Jul-28 09:32N 36°41' W 008°56'11 8.2
2015-Jul-28 08:14N 36°38' W 008°44'35 9.4
2015-Jul-28 04:34N 36°26' W 008°03'10 9.7
2015-Jul-28 03:33N 36°23' W 007°52'3210.1
2015-Jul-28 00:24N 36°13' W 007°14'1210.3
2015-Jul-27 23:17N 36°09' W 007°01'910.7
2015-Jul-27 22:27N 36°06' W 006°50'1110.3
2015-Jul-27 21:23N 36°02' W 006°38'910.3
2015-Jul-27 20:31N 35°60' W 006°27'208 9.3
2015-Jul-26 22:07N 36°27' W 002°11'710.4
2015-Jul-26 21:29N 36°30' W 002°04'2010.6
2015-Jul-26 19:33N 36°42' W 001°43'1110.6
2015-Jul-26 18:33N 36°48' W 001°32'2210.8
2015-Jul-26 16:31N 37°01' W 001°10'1010.5
2015-Jul-26 15:33N 37°07' W 001°00'1110.7
2015-Jul-26 14:33N 37°13' W 000°49'1111.1
2015-Jul-26 13:31N 37°20' W 000°37'1010.8
2015-Jul-26 12:33N 37°25' W 000°26'1110.9
2015-Jul-26 11:33N 37°31' W 000°15'11810.7
2015-Jul-26 00:30N 38°42' E 001°45'9 9.6
2015-Jul-25 23:33N 38°49' E 001°53'10 9.7
2015-Jul-25 22:33N 38°56' E 002°01'10 9.9
2015-Jul-25 21:31N 39°04' E 002°09'1010.0
2015-Jul-25 20:33N 39°12' E 002°17'1010.1
2015-Jul-25 19:33N 39°19' E 002°26'1010.4
2015-Jul-25 18:33N 39°27' E 002°35'6 6.5
2015-Jul-25 17:34N 39°33' E 002°38'0 0.0
2015-Jul-25 15:05N 39°33' E 002°38'0 0.0
2015-Jul-25 14:29N 39°33' E 002°38'0 0.0
2015-Jul-25 13:32N 39°33' E 002°38'0 0.0
2015-Jul-25 12:32N 39°33' E 002°38'0 0.0
2015-Jul-25 10:17N 39°33' E 002°38'0 0.0
2015-Jul-25 09:23N 39°33' E 002°38'0 0.0
2015-Jul-25 08:32N 39°33' E 002°38'0 0.0
2015-Jul-25 07:29N 39°33' E 002°38'0 0.0
2015-Jul-25 06:32N 39°33' E 002°38'0 0.0
2015-Jul-25 05:23N 39°33' E 002°38'0 0.0
2015-Jul-25 04:11N 39°33' E 002°38'0 0.0
2015-Jul-25 03:11N 39°33' E 002°38'0 0.0
2015-Jul-25 02:29N 39°33' E 002°38'0 0.0
2015-Jul-25 01:32N 39°33' E 002°38'0 0.0
2015-Jul-25 00:32N 39°33' E 002°38'0 0.0
2015-Jul-24 23:32N 39°33' E 002°38'0 0.0
2015-Jul-24 22:32N 39°33' E 002°38'0 0.0
2015-Jul-24 21:32N 39°33' E 002°38'0 0.0
2015-Jul-24 20:28N 39°33' E 002°38'0 0.0
2015-Jul-24 19:31N 39°33' E 002°38'0 0.0
2015-Jul-24 18:31N 39°33' E 002°38'0 0.0
2015-Jul-24 17:31N 39°33' E 002°38'0 0.0
2015-Jul-24 16:31N 39°33' E 002°38'0 0.0
2015-Jul-24 15:31N 39°33' E 002°38'0 0.0
2015-Jul-24 14:31N 39°33' E 002°38'0 0.0
2015-Jul-24 13:28N 39°33' E 002°38'0 0.0
2015-Jul-24 12:31N 39°33' E 002°38'0 0.0
2015-Jul-24 11:31N 39°33' E 002°38'0 0.0
2015-Jul-24 10:31N 39°33' E 002°38'0 0.0
2015-Jul-24 09:31N 39°33' E 002°38'0 0.0
2015-Jul-24 08:31N 39°33' E 002°38'0 0.0
2015-Jul-24 07:28N 39°33' E 002°38'0 0.0
2015-Jul-24 06:31N 39°33' E 002°38'0 0.0
2015-Jul-24 05:31N 39°33' E 002°38'0 0.0
2015-Jul-24 04:31N 39°33' E 002°38'0 0.0
2015-Jul-24 03:31N 39°33' E 002°38'0 0.0
2015-Jul-24 02:31N 39°33' E 002°38'0 0.0
2015-Jul-24 01:31N 39°33' E 002°38'0 0.0
2015-Jul-24 00:28N 39°33' E 002°38'0 0.0
2015-Jul-23 23:31N 39°33' E 002°38'0 0.0
2015-Jul-23 22:31N 39°33' E 002°38'0 0.0
2015-Jul-23 21:31N 39°33' E 002°38'0 0.0
2015-Jul-23 20:31N 39°33' E 002°38'0 0.0
2015-Jul-23 19:31N 39°33' E 002°38'0 0.0
2015-Jul-23 18:31N 39°33' E 002°38'0 0.0
2015-Jul-23 17:31N 39°33' E 002°38'0 0.0
2015-Jul-23 16:31N 39°33' E 002°38'0 0.0
2015-Jul-23 15:31N 39°33' E 002°38'0 0.0
2015-Jul-23 14:31N 39°33' E 002°38'0 0.0
2015-Jul-23 13:31N 39°33' E 002°38'0 0.0
2015-Jul-23 12:31N 39°33' E 002°38'0 0.0
2015-Jul-23 11:34N 39°33' E 002°38'0 0.0
2015-Jul-23 10:33N 39°33' E 002°38'0 0.0
2015-Jul-23 09:33N 39°33' E 002°38'0 0.0
2015-Jul-23 08:33N 39°33' E 002°38'0 0.0
2015-Jul-23 07:34N 39°33' E 002°38'3 2.6
2015-Jul-23 06:33N 39°30' E 002°38'1010.1
2015-Jul-23 05:33N 39°20' E 002°36'8 8.1
2015-Jul-23 04:33N 39°13' E 002°32'3 3.0
2015-Jul-23 03:33N 39°10' E 002°33'5 4.9
2015-Jul-23 02:33N 39°12' E 002°27'10 9.6
2015-Jul-23 01:33N 39°12' E 002°14'10 9.5
2015-Jul-23 00:33N 39°12' E 002°02'2 1.7
2015-Jul-22 23:33N 39°11' E 002°04'10 9.9
2015-Jul-22 22:33N 39°11' E 002°16'10 9.8
2015-Jul-22 21:33N 39°11' E 002°29'3 2.7
2015-Jul-22 20:33N 39°09' E 002°32'1010.1
2015-Jul-22 19:33N 39°09' E 002°19'1010.0
2015-Jul-22 18:33N 39°09' E 002°06'4 4.5
2015-Jul-22 17:33N 39°07' E 002°00'10 9.8
2015-Jul-22 16:33N 39°07' E 002°13'10 9.8
2015-Jul-22 15:33N 39°07' E 002°26'6 6.2
2015-Jul-22 14:33N 39°06' E 002°33'10 9.9
2015-Jul-22 13:33N 39°06' E 002°20'10 9.8
2015-Jul-22 12:33N 39°06' E 002°08'8 7.6
2015-Jul-22 11:33N 39°04' E 001°58'1010.0
2015-Jul-22 10:33N 39°04' E 002°11'1010.1
2015-Jul-22 09:33N 39°04' E 002°24'9 9.0
2015-Jul-22 08:33N 39°03' E 002°36'9 9.4
2015-Jul-22 07:33N 39°03' E 002°24'10 9.8
2015-Jul-22 06:33N 39°03' E 002°11'1010.0
2015-Jul-22 05:33N 39°02' E 001°58'7 7.3
2015-Jul-22 04:33N 39°01' E 002°08'1010.0
2015-Jul-22 03:33N 39°01' E 002°20'1010.1
2015-Jul-22 02:33N 39°01' E 002°33'6 6.0
2015-Jul-22 01:33N 38°59' E 002°26'10 9.8
2015-Jul-22 00:33N 38°59' E 002°13'9 8.7
2015-Jul-21 23:33N 38°59' E 002°02'4 3.8
2015-Jul-21 22:33N 38°58' E 002°07'1010.0
2015-Jul-21 21:33N 38°58' E 002°20'1010.3
2015-Jul-21 20:33N 38°58' E 002°33'4 4.5
2015-Jul-21 19:33N 38°56' E 002°27'4 4.4
2015-Jul-21 18:33N 38°56' E 002°22'5 5.0
2015-Jul-21 17:33N 39°00' E 002°18'1010.0
2015-Jul-21 16:33N 39°09' E 002°11'3 2.6
2015-Jul-21 15:33N 39°11' E 002°09'0 0.2
2015-Jul-21 14:33N 39°11' E 002°09'7 6.9
2015-Jul-21 13:33N 39°04' E 002°12'1010.0
2015-Jul-21 12:32N 38°55' E 002°17'0 0.2
2015-Jul-21 11:32N 38°55' E 002°17'6 4.4
2015-Jul-21 10:08N 38°49' E 002°15'2 3.4
2015-Jul-21 09:33N 38°47' E 002°15'0 0.3
2015-Jul-21 08:33N 38°47' E 002°15'1 0.9
2015-Jul-21 07:33N 38°48' E 002°14'0 0.5
2015-Jul-21 06:33N 38°48' E 002°14'3 3.3
2015-Jul-21 05:33N 38°51' E 002°11'6 5.5
2015-Jul-21 04:33N 38°56' E 002°10'1010.1
2015-Jul-21 03:33N 38°56' E 002°23'5 5.5
2015-Jul-21 02:33N 38°55' E 002°16'8 8.1
2015-Jul-21 01:33N 38°53' E 002°06'1010.0
2015-Jul-21 00:33N 38°53' E 002°19'2 2.0
2015-Jul-20 23:33N 38°51' E 002°20'10 9.6
2015-Jul-20 22:33N 38°51' E 002°08'6 5.8
2015-Jul-20 21:33N 38°50' E 002°15'10 9.5
2015-Jul-20 20:33N 38°49' E 002°27'8 8.2
2015-Jul-20 19:33N 38°48' E 002°17'4 4.5
2015-Jul-20 18:33N 38°48' E 002°11'5 4.9
2015-Jul-20 17:30N 38°44' E 002°06'0 0.4
2015-Jul-20 16:32N 38°44' E 002°07'1 0.6
2015-Jul-20 15:32N 38°44' E 002°07'5 4.5
2015-Jul-20 14:29N 38°39' E 002°05'4 4.2
2015-Jul-20 13:33N 38°43' E 002°07'1 1.4
2015-Jul-20 12:33N 38°42' E 002°06'1 1.0
2015-Jul-20 11:33N 38°43' E 002°06'7 6.9
2015-Jul-20 10:32N 38°36' E 002°04'20 8.6
2015-Jul-20 08:12N 38°16' E 001°59'0 0.6
2015-Jul-20 07:26N 38°17' E 001°59'0 0.4
2015-Jul-20 06:33N 38°17' E 001°59'6 2.8
2015-Jul-20 04:28N 38°11' E 001°59'4 4.6
2015-Jul-20 03:33N 38°08' E 001°56'9 4.5
2015-Jul-20 01:33N 38°07' E 001°45'5 4.5
2015-Jul-20 00:33N 38°07' E 001°39'5 4.5
2015-Jul-19 23:32N 38°07' E 001°33'3 3.3
2015-Jul-19 22:33N 38°04' E 001°34'7 6.7
2015-Jul-19 21:29N 38°04' E 001°43'3 2.7
2015-Jul-19 20:23N 38°04' E 001°46'4 4.5
2015-Jul-19 19:32N 38°04' E 001°51'6 4.7
2015-Jul-19 18:11N 38°05' E 001°59'7 9.7
2015-Jul-19 17:27N 38°06' E 001°50'6 6.8
2015-Jul-19 16:32N 38°06' E 001°42'0 0.2
2015-Jul-19 15:33N 38°06' E 001°42'0 0.1
2015-Jul-19 14:33N 38°06' E 001°43'1 0.9
2015-Jul-19 13:33N 38°05' E 001°43'0 0.5
2015-Jul-19 12:34N 38°05' E 001°43'7 6.2
2015-Jul-19 11:30N 38°04' E 001°51'1110.3
2015-Jul-19 10:28N 38°03' E 002°05'8 9.2
2015-Jul-19 09:33N 38°03' E 002°15'  

Dump ship's entire track history